<?xml version="1.0" encoding="UTF-8" standalone="no" ?>
<gpx xmlns="http://www.topografix.com/GPX/1/1" xmlns:xsi="http://www.w3.org/2001/XMLSchema-instance" xsi:schemaLocation="http://www.topografix.com/GPX/1/1 http://www.topografix.com/GPX/1/1/gpx.xsd" version="1.1" creator="VisuGPX - https://www.visugpx.com">
  <metadata>
    <name>2020-08-23 Montolieu, </name>
  </metadata>
  <trk>
    <name><![CDATA[2020-08-23Montolieu, Magali,Carine,SylviePierrre,Michel,Jacques]]></name>
    <trkseg>
      <trkpt lat="43.30747" lon="2.21599">
        <ele>159.07421875</ele>
        <time>2020-08-23T05:52:26Z</time>
      </trkpt>
      <trkpt lat="43.3073" lon="2.21612">
        <ele>156.85546875</ele>
        <time>2020-08-23T05:53:09Z</time>
      </trkpt>
      <trkpt lat="43.30744" lon="2.21645">
        <ele>156.36328125</ele>
        <time>2020-08-23T05:53:25Z</time>
      </trkpt>
      <trkpt lat="43.30757" lon="2.21672">
        <ele>156.375</ele>
        <time>2020-08-23T05:53:39Z</time>
      </trkpt>
      <trkpt lat="43.30773" lon="2.21693">
        <ele>156.47265625</ele>
        <time>2020-08-23T05:54:04Z</time>
      </trkpt>
      <trkpt lat="43.3084" lon="2.21716">
        <ele>156.7109375</ele>
        <time>2020-08-23T05:54:39Z</time>
      </trkpt>
      <trkpt lat="43.30884" lon="2.21702">
        <ele>157.27734375</ele>
        <time>2020-08-23T05:55:12Z</time>
      </trkpt>
      <trkpt lat="43.30917" lon="2.21681">
        <ele>159.13671875</ele>
        <time>2020-08-23T05:55:33Z</time>
      </trkpt>
      <trkpt lat="43.30957" lon="2.21621">
        <ele>163</ele>
        <time>2020-08-23T05:56:11Z</time>
      </trkpt>
      <trkpt lat="43.30983" lon="2.216">
        <ele>164.1796875</ele>
        <time>2020-08-23T05:56:30Z</time>
      </trkpt>
      <trkpt lat="43.30949" lon="2.21557">
        <ele>172.4296875</ele>
        <time>2020-08-23T05:57:07Z</time>
      </trkpt>
      <trkpt lat="43.30951" lon="2.21528">
        <ele>175.875</ele>
        <time>2020-08-23T05:57:55Z</time>
      </trkpt>
      <trkpt lat="43.30973" lon="2.215">
        <ele>178.859375</ele>
        <time>2020-08-23T05:58:12Z</time>
      </trkpt>
      <trkpt lat="43.31105" lon="2.21535">
        <ele>180.47265625</ele>
        <time>2020-08-23T05:59:34Z</time>
      </trkpt>
      <trkpt lat="43.31129" lon="2.21529">
        <ele>182.33203125</ele>
        <time>2020-08-23T06:00:48Z</time>
      </trkpt>
      <trkpt lat="43.31243" lon="2.21574">
        <ele>181.55859375</ele>
        <time>2020-08-23T06:01:41Z</time>
      </trkpt>
      <trkpt lat="43.31264" lon="2.21592">
        <ele>181.58203125</ele>
        <time>2020-08-23T06:01:51Z</time>
      </trkpt>
      <trkpt lat="43.31327" lon="2.2159">
        <ele>184.453125</ele>
        <time>2020-08-23T06:02:16Z</time>
      </trkpt>
      <trkpt lat="43.31354" lon="2.2158">
        <ele>188.3359375</ele>
        <time>2020-08-23T06:02:28Z</time>
      </trkpt>
      <trkpt lat="43.31383" lon="2.21569">
        <ele>193.328125</ele>
        <time>2020-08-23T06:02:42Z</time>
      </trkpt>
      <trkpt lat="43.31407" lon="2.21558">
        <ele>198.4140625</ele>
        <time>2020-08-23T06:02:56Z</time>
      </trkpt>
      <trkpt lat="43.31429" lon="2.21549">
        <ele>203.375</ele>
        <time>2020-08-23T06:03:09Z</time>
      </trkpt>
      <trkpt lat="43.31452" lon="2.21534">
        <ele>209.4921875</ele>
        <time>2020-08-23T06:03:23Z</time>
      </trkpt>
      <trkpt lat="43.31477" lon="2.21524">
        <ele>213.61328125</ele>
        <time>2020-08-23T06:03:37Z</time>
      </trkpt>
      <trkpt lat="43.31506" lon="2.21513">
        <ele>216.89453125</ele>
        <time>2020-08-23T06:03:53Z</time>
      </trkpt>
      <trkpt lat="43.31529" lon="2.21503">
        <ele>220.1015625</ele>
        <time>2020-08-23T06:04:04Z</time>
      </trkpt>
      <trkpt lat="43.31552" lon="2.21496">
        <ele>222.6484375</ele>
        <time>2020-08-23T06:04:15Z</time>
      </trkpt>
      <trkpt lat="43.31575" lon="2.21494">
        <ele>225.578125</ele>
        <time>2020-08-23T06:04:28Z</time>
      </trkpt>
      <trkpt lat="43.31596" lon="2.21495">
        <ele>227.86328125</ele>
        <time>2020-08-23T06:04:39Z</time>
      </trkpt>
      <trkpt lat="43.31617" lon="2.21487">
        <ele>229.453125</ele>
        <time>2020-08-23T06:04:52Z</time>
      </trkpt>
      <trkpt lat="43.31636" lon="2.21473">
        <ele>230.74609375</ele>
        <time>2020-08-23T06:05:06Z</time>
      </trkpt>
      <trkpt lat="43.31653" lon="2.21456">
        <ele>232.28125</ele>
        <time>2020-08-23T06:05:17Z</time>
      </trkpt>
      <trkpt lat="43.3167" lon="2.21436">
        <ele>233.81640625</ele>
        <time>2020-08-23T06:05:29Z</time>
      </trkpt>
      <trkpt lat="43.31685" lon="2.21419">
        <ele>235.1875</ele>
        <time>2020-08-23T06:05:41Z</time>
      </trkpt>
      <trkpt lat="43.31699" lon="2.214">
        <ele>236.359375</ele>
        <time>2020-08-23T06:05:52Z</time>
      </trkpt>
      <trkpt lat="43.31711" lon="2.21376">
        <ele>237.2265625</ele>
        <time>2020-08-23T06:06:02Z</time>
      </trkpt>
      <trkpt lat="43.31722" lon="2.21352">
        <ele>237.6328125</ele>
        <time>2020-08-23T06:06:11Z</time>
      </trkpt>
      <trkpt lat="43.31732" lon="2.21324">
        <ele>237.734375</ele>
        <time>2020-08-23T06:06:21Z</time>
      </trkpt>
      <trkpt lat="43.31746" lon="2.21307">
        <ele>238.60546875</ele>
        <time>2020-08-23T06:06:30Z</time>
      </trkpt>
      <trkpt lat="43.31764" lon="2.213">
        <ele>239.8046875</ele>
        <time>2020-08-23T06:06:41Z</time>
      </trkpt>
      <trkpt lat="43.31781" lon="2.21289">
        <ele>240.71875</ele>
        <time>2020-08-23T06:06:51Z</time>
      </trkpt>
      <trkpt lat="43.318" lon="2.21278">
        <ele>241.54296875</ele>
        <time>2020-08-23T06:07:01Z</time>
      </trkpt>
      <trkpt lat="43.31821" lon="2.21266">
        <ele>242.3515625</ele>
        <time>2020-08-23T06:07:12Z</time>
      </trkpt>
      <trkpt lat="43.31848" lon="2.21248">
        <ele>242.48828125</ele>
        <time>2020-08-23T06:07:27Z</time>
      </trkpt>
      <trkpt lat="43.3187" lon="2.21238">
        <ele>241.078125</ele>
        <time>2020-08-23T06:07:39Z</time>
      </trkpt>
      <trkpt lat="43.31895" lon="2.21237">
        <ele>239.62890625</ele>
        <time>2020-08-23T06:07:52Z</time>
      </trkpt>
      <trkpt lat="43.31938" lon="2.21249">
        <ele>238.78125</ele>
        <time>2020-08-23T06:08:14Z</time>
      </trkpt>
      <trkpt lat="43.31983" lon="2.21277">
        <ele>240.39453125</ele>
        <time>2020-08-23T06:08:39Z</time>
      </trkpt>
      <trkpt lat="43.32049" lon="2.21306">
        <ele>249.171875</ele>
        <time>2020-08-23T06:09:07Z</time>
      </trkpt>
      <trkpt lat="43.32092" lon="2.21319">
        <ele>252.69921875</ele>
        <time>2020-08-23T06:09:24Z</time>
      </trkpt>
      <trkpt lat="43.32128" lon="2.21326">
        <ele>251.31640625</ele>
        <time>2020-08-23T06:09:40Z</time>
      </trkpt>
      <trkpt lat="43.32149" lon="2.21343">
        <ele>253.94140625</ele>
        <time>2020-08-23T06:09:49Z</time>
      </trkpt>
      <trkpt lat="43.32183" lon="2.21352">
        <ele>255.14453125</ele>
        <time>2020-08-23T06:10:09Z</time>
      </trkpt>
      <trkpt lat="43.32227" lon="2.21355">
        <ele>256.30078125</ele>
        <time>2020-08-23T06:10:25Z</time>
      </trkpt>
      <trkpt lat="43.3225" lon="2.21357">
        <ele>257.1875</ele>
        <time>2020-08-23T06:10:43Z</time>
      </trkpt>
      <trkpt lat="43.32229" lon="2.21353">
        <ele>255.9296875</ele>
        <time>2020-08-23T06:10:55Z</time>
      </trkpt>
      <trkpt lat="43.32205" lon="2.21346">
        <ele>253.88671875</ele>
        <time>2020-08-23T06:11:10Z</time>
      </trkpt>
      <trkpt lat="43.32227" lon="2.21339">
        <ele>252.6640625</ele>
        <time>2020-08-23T06:11:29Z</time>
      </trkpt>
      <trkpt lat="43.32275" lon="2.21341">
        <ele>253.89453125</ele>
        <time>2020-08-23T06:11:48Z</time>
      </trkpt>
      <trkpt lat="43.32304" lon="2.2134">
        <ele>253.85546875</ele>
        <time>2020-08-23T06:11:58Z</time>
      </trkpt>
      <trkpt lat="43.32331" lon="2.21343">
        <ele>253.59765625</ele>
        <time>2020-08-23T06:12:11Z</time>
      </trkpt>
      <trkpt lat="43.3235" lon="2.2136">
        <ele>254.86328125</ele>
        <time>2020-08-23T06:12:22Z</time>
      </trkpt>
      <trkpt lat="43.32376" lon="2.21379">
        <ele>256.1796875</ele>
        <time>2020-08-23T06:12:35Z</time>
      </trkpt>
      <trkpt lat="43.32399" lon="2.21364">
        <ele>255.671875</ele>
        <time>2020-08-23T06:12:47Z</time>
      </trkpt>
      <trkpt lat="43.32412" lon="2.21339">
        <ele>254.91796875</ele>
        <time>2020-08-23T06:12:57Z</time>
      </trkpt>
      <trkpt lat="43.32421" lon="2.21307">
        <ele>254.109375</ele>
        <time>2020-08-23T06:13:08Z</time>
      </trkpt>
      <trkpt lat="43.32427" lon="2.21275">
        <ele>253.1484375</ele>
        <time>2020-08-23T06:13:20Z</time>
      </trkpt>
      <trkpt lat="43.32421" lon="2.21229">
        <ele>251.34375</ele>
        <time>2020-08-23T06:13:35Z</time>
      </trkpt>
      <trkpt lat="43.32421" lon="2.21189">
        <ele>249.93359375</ele>
        <time>2020-08-23T06:13:47Z</time>
      </trkpt>
      <trkpt lat="43.3244" lon="2.21162">
        <ele>250.23046875</ele>
        <time>2020-08-23T06:14:05Z</time>
      </trkpt>
      <trkpt lat="43.3247" lon="2.21135">
        <ele>251.6015625</ele>
        <time>2020-08-23T06:14:21Z</time>
      </trkpt>
      <trkpt lat="43.32489" lon="2.21108">
        <ele>251.875</ele>
        <time>2020-08-23T06:14:33Z</time>
      </trkpt>
      <trkpt lat="43.32505" lon="2.21068">
        <ele>251.75390625</ele>
        <time>2020-08-23T06:14:48Z</time>
      </trkpt>
      <trkpt lat="43.32524" lon="2.21031">
        <ele>251.74609375</ele>
        <time>2020-08-23T06:15:01Z</time>
      </trkpt>
      <trkpt lat="43.32545" lon="2.21001">
        <ele>248.9375</ele>
        <time>2020-08-23T06:15:15Z</time>
      </trkpt>
      <trkpt lat="43.32566" lon="2.20958">
        <ele>244.9140625</ele>
        <time>2020-08-23T06:15:36Z</time>
      </trkpt>
      <trkpt lat="43.32571" lon="2.20926">
        <ele>243.234375</ele>
        <time>2020-08-23T06:16:33Z</time>
      </trkpt>
      <trkpt lat="43.3257" lon="2.20901">
        <ele>243.91796875</ele>
        <time>2020-08-23T06:17:39Z</time>
      </trkpt>
      <trkpt lat="43.32601" lon="2.20877">
        <ele>247.30859375</ele>
        <time>2020-08-23T06:18:11Z</time>
      </trkpt>
      <trkpt lat="43.32659" lon="2.2085">
        <ele>256.1875</ele>
        <time>2020-08-23T06:18:50Z</time>
      </trkpt>
      <trkpt lat="43.32684" lon="2.20827">
        <ele>260.45703125</ele>
        <time>2020-08-23T06:19:05Z</time>
      </trkpt>
      <trkpt lat="43.32702" lon="2.20811">
        <ele>262.96484375</ele>
        <time>2020-08-23T06:19:12Z</time>
      </trkpt>
      <trkpt lat="43.32719" lon="2.20791">
        <ele>265.3203125</ele>
        <time>2020-08-23T06:19:19Z</time>
      </trkpt>
      <trkpt lat="43.32737" lon="2.20772">
        <ele>267.50390625</ele>
        <time>2020-08-23T06:19:27Z</time>
      </trkpt>
      <trkpt lat="43.32752" lon="2.20755">
        <ele>269.3125</ele>
        <time>2020-08-23T06:19:35Z</time>
      </trkpt>
      <trkpt lat="43.32769" lon="2.20738">
        <ele>270.9609375</ele>
        <time>2020-08-23T06:19:44Z</time>
      </trkpt>
      <trkpt lat="43.32786" lon="2.20722">
        <ele>272.52734375</ele>
        <time>2020-08-23T06:19:54Z</time>
      </trkpt>
      <trkpt lat="43.32801" lon="2.20709">
        <ele>273.76171875</ele>
        <time>2020-08-23T06:20:04Z</time>
      </trkpt>
      <trkpt lat="43.32818" lon="2.20693">
        <ele>275.1796875</ele>
        <time>2020-08-23T06:20:13Z</time>
      </trkpt>
      <trkpt lat="43.32834" lon="2.20677">
        <ele>276.67578125</ele>
        <time>2020-08-23T06:20:22Z</time>
      </trkpt>
      <trkpt lat="43.3285" lon="2.20658">
        <ele>278.1328125</ele>
        <time>2020-08-23T06:20:31Z</time>
      </trkpt>
      <trkpt lat="43.32867" lon="2.2064">
        <ele>279.55859375</ele>
        <time>2020-08-23T06:20:41Z</time>
      </trkpt>
      <trkpt lat="43.32884" lon="2.20625">
        <ele>280.92578125</ele>
        <time>2020-08-23T06:20:50Z</time>
      </trkpt>
      <trkpt lat="43.32899" lon="2.20611">
        <ele>282.37109375</ele>
        <time>2020-08-23T06:21:13Z</time>
      </trkpt>
      <trkpt lat="43.32916" lon="2.20592">
        <ele>284.03125</ele>
        <time>2020-08-23T06:21:30Z</time>
      </trkpt>
      <trkpt lat="43.32936" lon="2.20569">
        <ele>286.38671875</ele>
        <time>2020-08-23T06:21:54Z</time>
      </trkpt>
      <trkpt lat="43.32937" lon="2.20534">
        <ele>286.8984375</ele>
        <time>2020-08-23T06:22:27Z</time>
      </trkpt>
      <trkpt lat="43.3296" lon="2.20519">
        <ele>289.0078125</ele>
        <time>2020-08-23T06:22:59Z</time>
      </trkpt>
      <trkpt lat="43.32967" lon="2.20497">
        <ele>289.69140625</ele>
        <time>2020-08-23T06:23:15Z</time>
      </trkpt>
      <trkpt lat="43.32965" lon="2.2047">
        <ele>289.58203125</ele>
        <time>2020-08-23T06:23:40Z</time>
      </trkpt>
      <trkpt lat="43.32947" lon="2.20452">
        <ele>288.28125</ele>
        <time>2020-08-23T06:23:49Z</time>
      </trkpt>
      <trkpt lat="43.32928" lon="2.20433">
        <ele>286.890625</ele>
        <time>2020-08-23T06:23:59Z</time>
      </trkpt>
      <trkpt lat="43.32904" lon="2.20431">
        <ele>284.74609375</ele>
        <time>2020-08-23T06:24:07Z</time>
      </trkpt>
      <trkpt lat="43.32899" lon="2.20405">
        <ele>283.92578125</ele>
        <time>2020-08-23T06:24:18Z</time>
      </trkpt>
      <trkpt lat="43.32902" lon="2.20377">
        <ele>283.75</ele>
        <time>2020-08-23T06:24:30Z</time>
      </trkpt>
      <trkpt lat="43.32903" lon="2.20351">
        <ele>283.42578125</ele>
        <time>2020-08-23T06:24:40Z</time>
      </trkpt>
      <trkpt lat="43.32909" lon="2.20323">
        <ele>283.51953125</ele>
        <time>2020-08-23T06:24:51Z</time>
      </trkpt>
      <trkpt lat="43.32916" lon="2.20292">
        <ele>283.73046875</ele>
        <time>2020-08-23T06:25:03Z</time>
      </trkpt>
      <trkpt lat="43.32923" lon="2.2026">
        <ele>283.609375</ele>
        <time>2020-08-23T06:25:16Z</time>
      </trkpt>
      <trkpt lat="43.32917" lon="2.20225">
        <ele>283.13671875</ele>
        <time>2020-08-23T06:25:28Z</time>
      </trkpt>
      <trkpt lat="43.3291" lon="2.20187">
        <ele>281.98828125</ele>
        <time>2020-08-23T06:25:41Z</time>
      </trkpt>
      <trkpt lat="43.32901" lon="2.20155">
        <ele>280.0390625</ele>
        <time>2020-08-23T06:25:52Z</time>
      </trkpt>
      <trkpt lat="43.32886" lon="2.20126">
        <ele>278.33203125</ele>
        <time>2020-08-23T06:26:04Z</time>
      </trkpt>
      <trkpt lat="43.32863" lon="2.20087">
        <ele>276.2890625</ele>
        <time>2020-08-23T06:26:19Z</time>
      </trkpt>
      <trkpt lat="43.32838" lon="2.20076">
        <ele>276.69921875</ele>
        <time>2020-08-23T06:26:33Z</time>
      </trkpt>
      <trkpt lat="43.32817" lon="2.20082">
        <ele>276.9765625</ele>
        <time>2020-08-23T06:26:47Z</time>
      </trkpt>
      <trkpt lat="43.32795" lon="2.20096">
        <ele>277.6640625</ele>
        <time>2020-08-23T06:27:02Z</time>
      </trkpt>
      <trkpt lat="43.32774" lon="2.20108">
        <ele>278.9765625</ele>
        <time>2020-08-23T06:27:15Z</time>
      </trkpt>
      <trkpt lat="43.32756" lon="2.20131">
        <ele>278.67578125</ele>
        <time>2020-08-23T06:27:29Z</time>
      </trkpt>
      <trkpt lat="43.32737" lon="2.20148">
        <ele>278.2265625</ele>
        <time>2020-08-23T06:27:41Z</time>
      </trkpt>
      <trkpt lat="43.32695" lon="2.20193">
        <ele>275.59375</ele>
        <time>2020-08-23T06:27:56Z</time>
      </trkpt>
      <trkpt lat="43.32655" lon="2.20223">
        <ele>274.8515625</ele>
        <time>2020-08-23T06:28:14Z</time>
      </trkpt>
      <trkpt lat="43.32626" lon="2.20245">
        <ele>274.1484375</ele>
        <time>2020-08-23T06:28:25Z</time>
      </trkpt>
      <trkpt lat="43.32596" lon="2.20265">
        <ele>273.90625</ele>
        <time>2020-08-23T06:28:37Z</time>
      </trkpt>
      <trkpt lat="43.32567" lon="2.20274">
        <ele>274.91796875</ele>
        <time>2020-08-23T06:28:46Z</time>
      </trkpt>
      <trkpt lat="43.32538" lon="2.20279">
        <ele>276.2890625</ele>
        <time>2020-08-23T06:28:56Z</time>
      </trkpt>
      <trkpt lat="43.32514" lon="2.20271">
        <ele>278.3046875</ele>
        <time>2020-08-23T06:29:06Z</time>
      </trkpt>
      <trkpt lat="43.32493" lon="2.20248">
        <ele>280.8671875</ele>
        <time>2020-08-23T06:29:17Z</time>
      </trkpt>
      <trkpt lat="43.32474" lon="2.20222">
        <ele>281.61328125</ele>
        <time>2020-08-23T06:29:25Z</time>
      </trkpt>
      <trkpt lat="43.32458" lon="2.20199">
        <ele>281.50390625</ele>
        <time>2020-08-23T06:29:33Z</time>
      </trkpt>
      <trkpt lat="43.32441" lon="2.20174">
        <ele>280.890625</ele>
        <time>2020-08-23T06:29:41Z</time>
      </trkpt>
      <trkpt lat="43.32424" lon="2.20149">
        <ele>280.29296875</ele>
        <time>2020-08-23T06:29:50Z</time>
      </trkpt>
      <trkpt lat="43.32408" lon="2.20124">
        <ele>279.8515625</ele>
        <time>2020-08-23T06:29:59Z</time>
      </trkpt>
      <trkpt lat="43.32392" lon="2.20098">
        <ele>279.56640625</ele>
        <time>2020-08-23T06:30:08Z</time>
      </trkpt>
      <trkpt lat="43.32375" lon="2.20075">
        <ele>279.26171875</ele>
        <time>2020-08-23T06:30:16Z</time>
      </trkpt>
      <trkpt lat="43.32358" lon="2.20048">
        <ele>279</ele>
        <time>2020-08-23T06:30:25Z</time>
      </trkpt>
      <trkpt lat="43.32342" lon="2.20023">
        <ele>279</ele>
        <time>2020-08-23T06:30:34Z</time>
      </trkpt>
      <trkpt lat="43.32324" lon="2.19997">
        <ele>279</ele>
        <time>2020-08-23T06:30:45Z</time>
      </trkpt>
      <trkpt lat="43.32305" lon="2.19972">
        <ele>279.09765625</ele>
        <time>2020-08-23T06:30:55Z</time>
      </trkpt>
      <trkpt lat="43.32291" lon="2.1994">
        <ele>280.00390625</ele>
        <time>2020-08-23T06:31:16Z</time>
      </trkpt>
      <trkpt lat="43.32285" lon="2.19907">
        <ele>280.45703125</ele>
        <time>2020-08-23T06:32:12Z</time>
      </trkpt>
      <trkpt lat="43.32265" lon="2.19883">
        <ele>281.2109375</ele>
        <time>2020-08-23T06:32:44Z</time>
      </trkpt>
      <trkpt lat="43.32246" lon="2.19869">
        <ele>282.06640625</ele>
        <time>2020-08-23T06:32:59Z</time>
      </trkpt>
      <trkpt lat="43.32225" lon="2.19865">
        <ele>282.9140625</ele>
        <time>2020-08-23T06:33:09Z</time>
      </trkpt>
      <trkpt lat="43.32205" lon="2.19863">
        <ele>283.671875</ele>
        <time>2020-08-23T06:33:18Z</time>
      </trkpt>
      <trkpt lat="43.32184" lon="2.19866">
        <ele>284.90234375</ele>
        <time>2020-08-23T06:33:28Z</time>
      </trkpt>
      <trkpt lat="43.32163" lon="2.19869">
        <ele>286.73046875</ele>
        <time>2020-08-23T06:33:37Z</time>
      </trkpt>
      <trkpt lat="43.32143" lon="2.19873">
        <ele>288.2890625</ele>
        <time>2020-08-23T06:33:46Z</time>
      </trkpt>
      <trkpt lat="43.32122" lon="2.19878">
        <ele>289.98828125</ele>
        <time>2020-08-23T06:33:57Z</time>
      </trkpt>
      <trkpt lat="43.32103" lon="2.19883">
        <ele>291.57421875</ele>
        <time>2020-08-23T06:34:07Z</time>
      </trkpt>
      <trkpt lat="43.32074" lon="2.19905">
        <ele>293.15625</ele>
        <time>2020-08-23T06:34:29Z</time>
      </trkpt>
      <trkpt lat="43.32053" lon="2.19908">
        <ele>294.3515625</ele>
        <time>2020-08-23T06:34:39Z</time>
      </trkpt>
      <trkpt lat="43.32033" lon="2.1991">
        <ele>295.50390625</ele>
        <time>2020-08-23T06:34:48Z</time>
      </trkpt>
      <trkpt lat="43.32013" lon="2.1991">
        <ele>296.8125</ele>
        <time>2020-08-23T06:34:57Z</time>
      </trkpt>
      <trkpt lat="43.31994" lon="2.19908">
        <ele>298.3359375</ele>
        <time>2020-08-23T06:35:08Z</time>
      </trkpt>
      <trkpt lat="43.3197" lon="2.19902">
        <ele>300.7890625</ele>
        <time>2020-08-23T06:35:23Z</time>
      </trkpt>
      <trkpt lat="43.3195" lon="2.19891">
        <ele>302.375</ele>
        <time>2020-08-23T06:35:37Z</time>
      </trkpt>
      <trkpt lat="43.3193" lon="2.19876">
        <ele>304.515625</ele>
        <time>2020-08-23T06:35:53Z</time>
      </trkpt>
      <trkpt lat="43.3191" lon="2.19853">
        <ele>305.734375</ele>
        <time>2020-08-23T06:36:09Z</time>
      </trkpt>
      <trkpt lat="43.31906" lon="2.19827">
        <ele>306.54296875</ele>
        <time>2020-08-23T06:36:21Z</time>
      </trkpt>
      <trkpt lat="43.31907" lon="2.19797">
        <ele>307.9609375</ele>
        <time>2020-08-23T06:36:32Z</time>
      </trkpt>
      <trkpt lat="43.31909" lon="2.19766">
        <ele>308.42578125</ele>
        <time>2020-08-23T06:36:43Z</time>
      </trkpt>
      <trkpt lat="43.31912" lon="2.1973">
        <ele>309.5859375</ele>
        <time>2020-08-23T06:36:54Z</time>
      </trkpt>
      <trkpt lat="43.31914" lon="2.19699">
        <ele>310.40625</ele>
        <time>2020-08-23T06:37:05Z</time>
      </trkpt>
      <trkpt lat="43.31917" lon="2.19661">
        <ele>311.8359375</ele>
        <time>2020-08-23T06:37:17Z</time>
      </trkpt>
      <trkpt lat="43.31922" lon="2.19621">
        <ele>312.6953125</ele>
        <time>2020-08-23T06:37:30Z</time>
      </trkpt>
      <trkpt lat="43.31924" lon="2.19581">
        <ele>313.0859375</ele>
        <time>2020-08-23T06:37:41Z</time>
      </trkpt>
      <trkpt lat="43.31921" lon="2.19546">
        <ele>313.32421875</ele>
        <time>2020-08-23T06:37:51Z</time>
      </trkpt>
      <trkpt lat="43.31916" lon="2.19508">
        <ele>313.89453125</ele>
        <time>2020-08-23T06:38:05Z</time>
      </trkpt>
      <trkpt lat="43.31904" lon="2.19468">
        <ele>312.89453125</ele>
        <time>2020-08-23T06:38:20Z</time>
      </trkpt>
      <trkpt lat="43.3189" lon="2.19429">
        <ele>311.90234375</ele>
        <time>2020-08-23T06:38:35Z</time>
      </trkpt>
      <trkpt lat="43.31884" lon="2.19385">
        <ele>312.828125</ele>
        <time>2020-08-23T06:38:53Z</time>
      </trkpt>
      <trkpt lat="43.31881" lon="2.19348">
        <ele>313.359375</ele>
        <time>2020-08-23T06:39:14Z</time>
      </trkpt>
      <trkpt lat="43.31878" lon="2.19311">
        <ele>313.55078125</ele>
        <time>2020-08-23T06:39:38Z</time>
      </trkpt>
      <trkpt lat="43.31876" lon="2.19264">
        <ele>314.03125</ele>
        <time>2020-08-23T06:39:59Z</time>
      </trkpt>
      <trkpt lat="43.31878" lon="2.19228">
        <ele>314.28515625</ele>
        <time>2020-08-23T06:40:12Z</time>
      </trkpt>
      <trkpt lat="43.31883" lon="2.19195">
        <ele>314.5546875</ele>
        <time>2020-08-23T06:40:23Z</time>
      </trkpt>
      <trkpt lat="43.31887" lon="2.19162">
        <ele>314.5703125</ele>
        <time>2020-08-23T06:40:33Z</time>
      </trkpt>
      <trkpt lat="43.3189" lon="2.19126">
        <ele>314.390625</ele>
        <time>2020-08-23T06:40:43Z</time>
      </trkpt>
      <trkpt lat="43.31893" lon="2.19093">
        <ele>314.1953125</ele>
        <time>2020-08-23T06:40:53Z</time>
      </trkpt>
      <trkpt lat="43.31897" lon="2.19064">
        <ele>313.5546875</ele>
        <time>2020-08-23T06:41:02Z</time>
      </trkpt>
      <trkpt lat="43.31902" lon="2.19036">
        <ele>312.82421875</ele>
        <time>2020-08-23T06:41:11Z</time>
      </trkpt>
      <trkpt lat="43.31906" lon="2.19005">
        <ele>311.37890625</ele>
        <time>2020-08-23T06:41:20Z</time>
      </trkpt>
      <trkpt lat="43.3191" lon="2.18973">
        <ele>309.83984375</ele>
        <time>2020-08-23T06:41:29Z</time>
      </trkpt>
      <trkpt lat="43.31914" lon="2.18945">
        <ele>308.828125</ele>
        <time>2020-08-23T06:41:38Z</time>
      </trkpt>
      <trkpt lat="43.31917" lon="2.18909">
        <ele>307.4453125</ele>
        <time>2020-08-23T06:41:47Z</time>
      </trkpt>
      <trkpt lat="43.31918" lon="2.1887">
        <ele>305.94140625</ele>
        <time>2020-08-23T06:41:56Z</time>
      </trkpt>
      <trkpt lat="43.31919" lon="2.18844">
        <ele>305.2890625</ele>
        <time>2020-08-23T06:42:04Z</time>
      </trkpt>
      <trkpt lat="43.3192" lon="2.18815">
        <ele>304.859375</ele>
        <time>2020-08-23T06:42:13Z</time>
      </trkpt>
      <trkpt lat="43.3192" lon="2.18785">
        <ele>304.8828125</ele>
        <time>2020-08-23T06:42:21Z</time>
      </trkpt>
      <trkpt lat="43.31923" lon="2.18757">
        <ele>304.9921875</ele>
        <time>2020-08-23T06:42:29Z</time>
      </trkpt>
      <trkpt lat="43.31928" lon="2.18726">
        <ele>305.640625</ele>
        <time>2020-08-23T06:42:38Z</time>
      </trkpt>
      <trkpt lat="43.31936" lon="2.18688">
        <ele>306.421875</ele>
        <time>2020-08-23T06:42:48Z</time>
      </trkpt>
      <trkpt lat="43.31948" lon="2.18652">
        <ele>307.05859375</ele>
        <time>2020-08-23T06:42:59Z</time>
      </trkpt>
      <trkpt lat="43.3195" lon="2.18612">
        <ele>307.22265625</ele>
        <time>2020-08-23T06:43:16Z</time>
      </trkpt>
      <trkpt lat="43.31951" lon="2.18586">
        <ele>307.25390625</ele>
        <time>2020-08-23T06:43:26Z</time>
      </trkpt>
      <trkpt lat="43.31955" lon="2.18559">
        <ele>307.41796875</ele>
        <time>2020-08-23T06:43:37Z</time>
      </trkpt>
      <trkpt lat="43.31957" lon="2.18516">
        <ele>307.40625</ele>
        <time>2020-08-23T06:43:46Z</time>
      </trkpt>
      <trkpt lat="43.3196" lon="2.18483">
        <ele>307.36328125</ele>
        <time>2020-08-23T06:43:55Z</time>
      </trkpt>
      <trkpt lat="43.31959" lon="2.1845">
        <ele>307.20703125</ele>
        <time>2020-08-23T06:44:03Z</time>
      </trkpt>
      <trkpt lat="43.3196" lon="2.18422">
        <ele>307.16015625</ele>
        <time>2020-08-23T06:44:11Z</time>
      </trkpt>
      <trkpt lat="43.31963" lon="2.18394">
        <ele>306.42578125</ele>
        <time>2020-08-23T06:44:25Z</time>
      </trkpt>
      <trkpt lat="43.31969" lon="2.18365">
        <ele>305.796875</ele>
        <time>2020-08-23T06:44:34Z</time>
      </trkpt>
      <trkpt lat="43.31975" lon="2.18338">
        <ele>305.63671875</ele>
        <time>2020-08-23T06:44:43Z</time>
      </trkpt>
      <trkpt lat="43.31949" lon="2.18306">
        <ele>303.2890625</ele>
        <time>2020-08-23T06:45:31Z</time>
      </trkpt>
      <trkpt lat="43.31929" lon="2.18296">
        <ele>301.6171875</ele>
        <time>2020-08-23T06:45:43Z</time>
      </trkpt>
      <trkpt lat="43.31908" lon="2.18285">
        <ele>299.89453125</ele>
        <time>2020-08-23T06:45:51Z</time>
      </trkpt>
      <trkpt lat="43.31889" lon="2.18278">
        <ele>298.11328125</ele>
        <time>2020-08-23T06:45:59Z</time>
      </trkpt>
      <trkpt lat="43.31865" lon="2.18274">
        <ele>296.01171875</ele>
        <time>2020-08-23T06:46:07Z</time>
      </trkpt>
      <trkpt lat="43.31843" lon="2.18265">
        <ele>293.65625</ele>
        <time>2020-08-23T06:46:15Z</time>
      </trkpt>
      <trkpt lat="43.3182" lon="2.18256">
        <ele>291.31640625</ele>
        <time>2020-08-23T06:46:24Z</time>
      </trkpt>
      <trkpt lat="43.31795" lon="2.18245">
        <ele>288.4140625</ele>
        <time>2020-08-23T06:46:33Z</time>
      </trkpt>
      <trkpt lat="43.31774" lon="2.18234">
        <ele>285.33984375</ele>
        <time>2020-08-23T06:46:40Z</time>
      </trkpt>
      <trkpt lat="43.31751" lon="2.18221">
        <ele>281.62109375</ele>
        <time>2020-08-23T06:46:48Z</time>
      </trkpt>
      <trkpt lat="43.31731" lon="2.18206">
        <ele>278.93359375</ele>
        <time>2020-08-23T06:46:55Z</time>
      </trkpt>
      <trkpt lat="43.31714" lon="2.18184">
        <ele>275.84375</ele>
        <time>2020-08-23T06:47:04Z</time>
      </trkpt>
      <trkpt lat="43.31694" lon="2.18164">
        <ele>272.71484375</ele>
        <time>2020-08-23T06:47:12Z</time>
      </trkpt>
      <trkpt lat="43.31674" lon="2.18144">
        <ele>272.01953125</ele>
        <time>2020-08-23T06:47:26Z</time>
      </trkpt>
      <trkpt lat="43.31654" lon="2.18129">
        <ele>271.2578125</ele>
        <time>2020-08-23T06:47:43Z</time>
      </trkpt>
      <trkpt lat="43.31636" lon="2.18112">
        <ele>270.01953125</ele>
        <time>2020-08-23T06:48:01Z</time>
      </trkpt>
      <trkpt lat="43.31619" lon="2.18094">
        <ele>269.09375</ele>
        <time>2020-08-23T06:48:09Z</time>
      </trkpt>
      <trkpt lat="43.31601" lon="2.18079">
        <ele>268.9609375</ele>
        <time>2020-08-23T06:48:16Z</time>
      </trkpt>
      <trkpt lat="43.31581" lon="2.18063">
        <ele>268.66796875</ele>
        <time>2020-08-23T06:48:25Z</time>
      </trkpt>
      <trkpt lat="43.31568" lon="2.18042">
        <ele>266.421875</ele>
        <time>2020-08-23T06:48:33Z</time>
      </trkpt>
      <trkpt lat="43.31554" lon="2.18018">
        <ele>263.859375</ele>
        <time>2020-08-23T06:48:42Z</time>
      </trkpt>
      <trkpt lat="43.31538" lon="2.17991">
        <ele>261.609375</ele>
        <time>2020-08-23T06:48:51Z</time>
      </trkpt>
      <trkpt lat="43.31519" lon="2.17971">
        <ele>259.671875</ele>
        <time>2020-08-23T06:49:00Z</time>
      </trkpt>
      <trkpt lat="43.31499" lon="2.17955">
        <ele>257.73046875</ele>
        <time>2020-08-23T06:49:08Z</time>
      </trkpt>
      <trkpt lat="43.31481" lon="2.17935">
        <ele>256.91796875</ele>
        <time>2020-08-23T06:49:16Z</time>
      </trkpt>
      <trkpt lat="43.31461" lon="2.17918">
        <ele>256.359375</ele>
        <time>2020-08-23T06:49:24Z</time>
      </trkpt>
      <trkpt lat="43.31438" lon="2.17904">
        <ele>254.55859375</ele>
        <time>2020-08-23T06:49:33Z</time>
      </trkpt>
      <trkpt lat="43.31415" lon="2.17891">
        <ele>253.5625</ele>
        <time>2020-08-23T06:49:41Z</time>
      </trkpt>
      <trkpt lat="43.31393" lon="2.17878">
        <ele>253.6484375</ele>
        <time>2020-08-23T06:49:49Z</time>
      </trkpt>
      <trkpt lat="43.31373" lon="2.17865">
        <ele>254.35546875</ele>
        <time>2020-08-23T06:49:58Z</time>
      </trkpt>
      <trkpt lat="43.31356" lon="2.17847">
        <ele>253.44140625</ele>
        <time>2020-08-23T06:50:07Z</time>
      </trkpt>
      <trkpt lat="43.31342" lon="2.17827">
        <ele>252.46484375</ele>
        <time>2020-08-23T06:50:20Z</time>
      </trkpt>
      <trkpt lat="43.31323" lon="2.17797">
        <ele>251.85546875</ele>
        <time>2020-08-23T06:50:42Z</time>
      </trkpt>
      <trkpt lat="43.31311" lon="2.1777">
        <ele>251.05078125</ele>
        <time>2020-08-23T06:51:05Z</time>
      </trkpt>
      <trkpt lat="43.31297" lon="2.17742">
        <ele>249.75</ele>
        <time>2020-08-23T06:51:17Z</time>
      </trkpt>
      <trkpt lat="43.31284" lon="2.17715">
        <ele>248.3125</ele>
        <time>2020-08-23T06:51:30Z</time>
      </trkpt>
      <trkpt lat="43.31265" lon="2.17688">
        <ele>248.87109375</ele>
        <time>2020-08-23T06:51:57Z</time>
      </trkpt>
      <trkpt lat="43.31243" lon="2.17674">
        <ele>250.0234375</ele>
        <time>2020-08-23T06:52:16Z</time>
      </trkpt>
      <trkpt lat="43.31224" lon="2.17661">
        <ele>248.78515625</ele>
        <time>2020-08-23T06:52:27Z</time>
      </trkpt>
      <trkpt lat="43.31209" lon="2.17643">
        <ele>247.5703125</ele>
        <time>2020-08-23T06:52:38Z</time>
      </trkpt>
      <trkpt lat="43.312" lon="2.17613">
        <ele>245.9921875</ele>
        <time>2020-08-23T06:52:49Z</time>
      </trkpt>
      <trkpt lat="43.31194" lon="2.1758">
        <ele>244.63671875</ele>
        <time>2020-08-23T06:53:01Z</time>
      </trkpt>
      <trkpt lat="43.31194" lon="2.17536">
        <ele>243.03515625</ele>
        <time>2020-08-23T06:53:16Z</time>
      </trkpt>
      <trkpt lat="43.31186" lon="2.1749">
        <ele>239.3984375</ele>
        <time>2020-08-23T06:53:32Z</time>
      </trkpt>
      <trkpt lat="43.31166" lon="2.17448">
        <ele>236.72265625</ele>
        <time>2020-08-23T06:53:46Z</time>
      </trkpt>
      <trkpt lat="43.31147" lon="2.17405">
        <ele>236.30078125</ele>
        <time>2020-08-23T06:53:56Z</time>
      </trkpt>
      <trkpt lat="43.3113" lon="2.17376">
        <ele>235.63671875</ele>
        <time>2020-08-23T06:54:06Z</time>
      </trkpt>
      <trkpt lat="43.31113" lon="2.17348">
        <ele>233.15625</ele>
        <time>2020-08-23T06:54:20Z</time>
      </trkpt>
      <trkpt lat="43.31103" lon="2.17307">
        <ele>232.42578125</ele>
        <time>2020-08-23T06:54:32Z</time>
      </trkpt>
      <trkpt lat="43.311" lon="2.17266">
        <ele>231.6953125</ele>
        <time>2020-08-23T06:54:43Z</time>
      </trkpt>
      <trkpt lat="43.31099" lon="2.1722">
        <ele>230.546875</ele>
        <time>2020-08-23T06:54:57Z</time>
      </trkpt>
      <trkpt lat="43.3109" lon="2.17174">
        <ele>229.1953125</ele>
        <time>2020-08-23T06:55:09Z</time>
      </trkpt>
      <trkpt lat="43.31071" lon="2.17143">
        <ele>226.2890625</ele>
        <time>2020-08-23T06:55:18Z</time>
      </trkpt>
      <trkpt lat="43.31044" lon="2.17127">
        <ele>221.53515625</ele>
        <time>2020-08-23T06:55:27Z</time>
      </trkpt>
      <trkpt lat="43.31019" lon="2.17111">
        <ele>219.203125</ele>
        <time>2020-08-23T06:55:37Z</time>
      </trkpt>
      <trkpt lat="43.30994" lon="2.17092">
        <ele>218.5078125</ele>
        <time>2020-08-23T06:55:47Z</time>
      </trkpt>
      <trkpt lat="43.30967" lon="2.17076">
        <ele>217.28125</ele>
        <time>2020-08-23T06:55:59Z</time>
      </trkpt>
      <trkpt lat="43.30936" lon="2.17059">
        <ele>214.50390625</ele>
        <time>2020-08-23T06:56:10Z</time>
      </trkpt>
      <trkpt lat="43.30902" lon="2.17052">
        <ele>209.44921875</ele>
        <time>2020-08-23T06:56:19Z</time>
      </trkpt>
      <trkpt lat="43.30869" lon="2.17036">
        <ele>204.3515625</ele>
        <time>2020-08-23T06:57:22Z</time>
      </trkpt>
      <trkpt lat="43.30849" lon="2.17024">
        <ele>201.8203125</ele>
        <time>2020-08-23T06:57:30Z</time>
      </trkpt>
      <trkpt lat="43.30829" lon="2.17013">
        <ele>199.5390625</ele>
        <time>2020-08-23T06:57:38Z</time>
      </trkpt>
      <trkpt lat="43.30809" lon="2.17004">
        <ele>197</ele>
        <time>2020-08-23T06:57:46Z</time>
      </trkpt>
      <trkpt lat="43.30789" lon="2.16997">
        <ele>195.03125</ele>
        <time>2020-08-23T06:57:54Z</time>
      </trkpt>
      <trkpt lat="43.30769" lon="2.16988">
        <ele>193.37890625</ele>
        <time>2020-08-23T06:58:01Z</time>
      </trkpt>
      <trkpt lat="43.3075" lon="2.1698">
        <ele>191.90234375</ele>
        <time>2020-08-23T06:58:08Z</time>
      </trkpt>
      <trkpt lat="43.3073" lon="2.16969">
        <ele>189.671875</ele>
        <time>2020-08-23T06:58:17Z</time>
      </trkpt>
      <trkpt lat="43.30709" lon="2.16956">
        <ele>187.1640625</ele>
        <time>2020-08-23T06:58:30Z</time>
      </trkpt>
      <trkpt lat="43.30687" lon="2.16938">
        <ele>184.4765625</ele>
        <time>2020-08-23T06:58:40Z</time>
      </trkpt>
      <trkpt lat="43.30669" lon="2.16921">
        <ele>182.18359375</ele>
        <time>2020-08-23T06:58:49Z</time>
      </trkpt>
      <trkpt lat="43.30647" lon="2.16906">
        <ele>179.54296875</ele>
        <time>2020-08-23T06:58:58Z</time>
      </trkpt>
      <trkpt lat="43.30626" lon="2.16892">
        <ele>177.26171875</ele>
        <time>2020-08-23T06:59:07Z</time>
      </trkpt>
      <trkpt lat="43.30606" lon="2.16875">
        <ele>175.13671875</ele>
        <time>2020-08-23T06:59:16Z</time>
      </trkpt>
      <trkpt lat="43.30585" lon="2.1686">
        <ele>172.8203125</ele>
        <time>2020-08-23T06:59:25Z</time>
      </trkpt>
      <trkpt lat="43.30561" lon="2.16842">
        <ele>170.19921875</ele>
        <time>2020-08-23T06:59:36Z</time>
      </trkpt>
      <trkpt lat="43.30538" lon="2.16824">
        <ele>167.94140625</ele>
        <time>2020-08-23T06:59:45Z</time>
      </trkpt>
      <trkpt lat="43.30522" lon="2.16808">
        <ele>166.50390625</ele>
        <time>2020-08-23T07:00:14Z</time>
      </trkpt>
      <trkpt lat="43.30517" lon="2.16773">
        <ele>165.09765625</ele>
        <time>2020-08-23T07:00:36Z</time>
      </trkpt>
      <trkpt lat="43.30517" lon="2.16741">
        <ele>164.58203125</ele>
        <time>2020-08-23T07:00:57Z</time>
      </trkpt>
      <trkpt lat="43.30508" lon="2.1675">
        <ele>164.26953125</ele>
        <time>2020-08-23T07:02:16Z</time>
      </trkpt>
      <trkpt lat="43.3051" lon="2.16782">
        <ele>165.09375</ele>
        <time>2020-08-23T07:02:37Z</time>
      </trkpt>
      <trkpt lat="43.30526" lon="2.16827">
        <ele>167.14453125</ele>
        <time>2020-08-23T07:02:58Z</time>
      </trkpt>
      <trkpt lat="43.30534" lon="2.16867">
        <ele>168.5234375</ele>
        <time>2020-08-23T07:03:11Z</time>
      </trkpt>
      <trkpt lat="43.30537" lon="2.16907">
        <ele>169.46484375</ele>
        <time>2020-08-23T07:03:23Z</time>
      </trkpt>
      <trkpt lat="43.30534" lon="2.16939">
        <ele>169.46484375</ele>
        <time>2020-08-23T07:03:36Z</time>
      </trkpt>
      <trkpt lat="43.30521" lon="2.16963">
        <ele>168.59765625</ele>
        <time>2020-08-23T07:03:47Z</time>
      </trkpt>
      <trkpt lat="43.30515" lon="2.16992">
        <ele>168.41796875</ele>
        <time>2020-08-23T07:03:58Z</time>
      </trkpt>
      <trkpt lat="43.30515" lon="2.17023">
        <ele>168.6640625</ele>
        <time>2020-08-23T07:04:11Z</time>
      </trkpt>
      <trkpt lat="43.30518" lon="2.17066">
        <ele>170.16796875</ele>
        <time>2020-08-23T07:04:27Z</time>
      </trkpt>
      <trkpt lat="43.30533" lon="2.17102">
        <ele>172.30078125</ele>
        <time>2020-08-23T07:04:45Z</time>
      </trkpt>
      <trkpt lat="43.30553" lon="2.17139">
        <ele>175.15234375</ele>
        <time>2020-08-23T07:05:01Z</time>
      </trkpt>
      <trkpt lat="43.30576" lon="2.17183">
        <ele>178.56640625</ele>
        <time>2020-08-23T07:05:22Z</time>
      </trkpt>
      <trkpt lat="43.30588" lon="2.17217">
        <ele>182.33984375</ele>
        <time>2020-08-23T07:05:35Z</time>
      </trkpt>
      <trkpt lat="43.30585" lon="2.17254">
        <ele>188.5546875</ele>
        <time>2020-08-23T07:05:50Z</time>
      </trkpt>
      <trkpt lat="43.30585" lon="2.17293">
        <ele>195.44921875</ele>
        <time>2020-08-23T07:06:14Z</time>
      </trkpt>
      <trkpt lat="43.30596" lon="2.17364">
        <ele>207.66796875</ele>
        <time>2020-08-23T07:06:41Z</time>
      </trkpt>
      <trkpt lat="43.3061" lon="2.17415">
        <ele>212.71875</ele>
        <time>2020-08-23T07:07:02Z</time>
      </trkpt>
      <trkpt lat="43.30614" lon="2.17455">
        <ele>215.6484375</ele>
        <time>2020-08-23T07:07:16Z</time>
      </trkpt>
      <trkpt lat="43.30597" lon="2.17485">
        <ele>218.64453125</ele>
        <time>2020-08-23T07:07:39Z</time>
      </trkpt>
      <trkpt lat="43.30601" lon="2.17513">
        <ele>219.93359375</ele>
        <time>2020-08-23T07:08:49Z</time>
      </trkpt>
      <trkpt lat="43.3059" lon="2.1754">
        <ele>222.1484375</ele>
        <time>2020-08-23T07:10:27Z</time>
      </trkpt>
      <trkpt lat="43.30569" lon="2.17558">
        <ele>224.140625</ele>
        <time>2020-08-23T07:10:53Z</time>
      </trkpt>
      <trkpt lat="43.30569" lon="2.1759">
        <ele>227.296875</ele>
        <time>2020-08-23T07:11:12Z</time>
      </trkpt>
      <trkpt lat="43.30566" lon="2.17618">
        <ele>230.50390625</ele>
        <time>2020-08-23T07:11:30Z</time>
      </trkpt>
      <trkpt lat="43.30564" lon="2.17647">
        <ele>233.94921875</ele>
        <time>2020-08-23T07:11:50Z</time>
      </trkpt>
      <trkpt lat="43.30558" lon="2.17682">
        <ele>238.26953125</ele>
        <time>2020-08-23T07:12:10Z</time>
      </trkpt>
      <trkpt lat="43.30548" lon="2.17712">
        <ele>241.95703125</ele>
        <time>2020-08-23T07:12:28Z</time>
      </trkpt>
      <trkpt lat="43.30538" lon="2.17744">
        <ele>243.63671875</ele>
        <time>2020-08-23T07:12:46Z</time>
      </trkpt>
      <trkpt lat="43.30529" lon="2.17775">
        <ele>244.68359375</ele>
        <time>2020-08-23T07:13:06Z</time>
      </trkpt>
      <trkpt lat="43.30521" lon="2.17804">
        <ele>243.9140625</ele>
        <time>2020-08-23T07:13:28Z</time>
      </trkpt>
      <trkpt lat="43.30503" lon="2.17831">
        <ele>244.3046875</ele>
        <time>2020-08-23T07:13:45Z</time>
      </trkpt>
      <trkpt lat="43.305" lon="2.17864">
        <ele>243.2265625</ele>
        <time>2020-08-23T07:14:01Z</time>
      </trkpt>
      <trkpt lat="43.30493" lon="2.17894">
        <ele>242.640625</ele>
        <time>2020-08-23T07:14:16Z</time>
      </trkpt>
      <trkpt lat="43.3049" lon="2.17929">
        <ele>241.70703125</ele>
        <time>2020-08-23T07:14:27Z</time>
      </trkpt>
      <trkpt lat="43.30482" lon="2.17963">
        <ele>243.17578125</ele>
        <time>2020-08-23T07:14:37Z</time>
      </trkpt>
      <trkpt lat="43.30477" lon="2.17998">
        <ele>243.4375</ele>
        <time>2020-08-23T07:14:49Z</time>
      </trkpt>
      <trkpt lat="43.30471" lon="2.18038">
        <ele>242.87890625</ele>
        <time>2020-08-23T07:15:01Z</time>
      </trkpt>
      <trkpt lat="43.30462" lon="2.18071">
        <ele>242.453125</ele>
        <time>2020-08-23T07:15:11Z</time>
      </trkpt>
      <trkpt lat="43.30456" lon="2.18105">
        <ele>243.44140625</ele>
        <time>2020-08-23T07:15:22Z</time>
      </trkpt>
      <trkpt lat="43.30447" lon="2.18137">
        <ele>245.81640625</ele>
        <time>2020-08-23T07:15:33Z</time>
      </trkpt>
      <trkpt lat="43.3044" lon="2.18172">
        <ele>248.5546875</ele>
        <time>2020-08-23T07:15:45Z</time>
      </trkpt>
      <trkpt lat="43.30431" lon="2.18204">
        <ele>250.703125</ele>
        <time>2020-08-23T07:15:56Z</time>
      </trkpt>
      <trkpt lat="43.3042" lon="2.18234">
        <ele>252.79296875</ele>
        <time>2020-08-23T07:16:06Z</time>
      </trkpt>
      <trkpt lat="43.30411" lon="2.18262">
        <ele>253.01171875</ele>
        <time>2020-08-23T07:16:15Z</time>
      </trkpt>
      <trkpt lat="43.30393" lon="2.18281">
        <ele>250.7265625</ele>
        <time>2020-08-23T07:16:24Z</time>
      </trkpt>
      <trkpt lat="43.30377" lon="2.18295">
        <ele>249.3515625</ele>
        <time>2020-08-23T07:16:32Z</time>
      </trkpt>
      <trkpt lat="43.30361" lon="2.1831">
        <ele>248.703125</ele>
        <time>2020-08-23T07:16:40Z</time>
      </trkpt>
      <trkpt lat="43.30343" lon="2.18325">
        <ele>248.10546875</ele>
        <time>2020-08-23T07:16:49Z</time>
      </trkpt>
      <trkpt lat="43.30327" lon="2.18338">
        <ele>247.76171875</ele>
        <time>2020-08-23T07:16:57Z</time>
      </trkpt>
      <trkpt lat="43.3031" lon="2.18353">
        <ele>247.75</ele>
        <time>2020-08-23T07:17:05Z</time>
      </trkpt>
      <trkpt lat="43.30293" lon="2.18365">
        <ele>248.06640625</ele>
        <time>2020-08-23T07:17:12Z</time>
      </trkpt>
      <trkpt lat="43.30278" lon="2.1838">
        <ele>247.7109375</ele>
        <time>2020-08-23T07:17:20Z</time>
      </trkpt>
      <trkpt lat="43.30262" lon="2.18397">
        <ele>246.83984375</ele>
        <time>2020-08-23T07:17:29Z</time>
      </trkpt>
      <trkpt lat="43.30251" lon="2.18421">
        <ele>246.00390625</ele>
        <time>2020-08-23T07:17:38Z</time>
      </trkpt>
      <trkpt lat="43.30242" lon="2.18447">
        <ele>245.625</ele>
        <time>2020-08-23T07:17:48Z</time>
      </trkpt>
      <trkpt lat="43.30237" lon="2.18479">
        <ele>245.28125</ele>
        <time>2020-08-23T07:17:59Z</time>
      </trkpt>
      <trkpt lat="43.30224" lon="2.18502">
        <ele>244.8046875</ele>
        <time>2020-08-23T07:18:09Z</time>
      </trkpt>
      <trkpt lat="43.3021" lon="2.18528">
        <ele>244.0859375</ele>
        <time>2020-08-23T07:18:24Z</time>
      </trkpt>
      <trkpt lat="43.30196" lon="2.18549">
        <ele>243.3359375</ele>
        <time>2020-08-23T07:18:41Z</time>
      </trkpt>
      <trkpt lat="43.3018" lon="2.18569">
        <ele>243.08203125</ele>
        <time>2020-08-23T07:18:57Z</time>
      </trkpt>
      <trkpt lat="43.30167" lon="2.1859">
        <ele>243.03125</ele>
        <time>2020-08-23T07:19:14Z</time>
      </trkpt>
      <trkpt lat="43.30157" lon="2.18612">
        <ele>243.1484375</ele>
        <time>2020-08-23T07:19:51Z</time>
      </trkpt>
      <trkpt lat="43.30145" lon="2.18632">
        <ele>243.06640625</ele>
        <time>2020-08-23T07:20:11Z</time>
      </trkpt>
      <trkpt lat="43.30125" lon="2.18675">
        <ele>242.87109375</ele>
        <time>2020-08-23T07:20:34Z</time>
      </trkpt>
      <trkpt lat="43.30111" lon="2.18694">
        <ele>242.4296875</ele>
        <time>2020-08-23T07:20:43Z</time>
      </trkpt>
      <trkpt lat="43.30097" lon="2.18713">
        <ele>241.703125</ele>
        <time>2020-08-23T07:20:53Z</time>
      </trkpt>
      <trkpt lat="43.30083" lon="2.18733">
        <ele>240.93359375</ele>
        <time>2020-08-23T07:21:02Z</time>
      </trkpt>
      <trkpt lat="43.30073" lon="2.18757">
        <ele>240.4453125</ele>
        <time>2020-08-23T07:21:10Z</time>
      </trkpt>
      <trkpt lat="43.30065" lon="2.18785">
        <ele>240.5078125</ele>
        <time>2020-08-23T07:21:18Z</time>
      </trkpt>
      <trkpt lat="43.30056" lon="2.18811">
        <ele>240.5</ele>
        <time>2020-08-23T07:21:26Z</time>
      </trkpt>
      <trkpt lat="43.30042" lon="2.18829">
        <ele>239.734375</ele>
        <time>2020-08-23T07:21:34Z</time>
      </trkpt>
      <trkpt lat="43.30024" lon="2.18831">
        <ele>238.7421875</ele>
        <time>2020-08-23T07:21:42Z</time>
      </trkpt>
      <trkpt lat="43.30005" lon="2.18828">
        <ele>237.7265625</ele>
        <time>2020-08-23T07:21:50Z</time>
      </trkpt>
      <trkpt lat="43.29987" lon="2.18839">
        <ele>236.7734375</ele>
        <time>2020-08-23T07:21:59Z</time>
      </trkpt>
      <trkpt lat="43.2997" lon="2.1885">
        <ele>235.78515625</ele>
        <time>2020-08-23T07:22:07Z</time>
      </trkpt>
      <trkpt lat="43.29954" lon="2.18867">
        <ele>234.63671875</ele>
        <time>2020-08-23T07:22:15Z</time>
      </trkpt>
      <trkpt lat="43.29939" lon="2.18886">
        <ele>233.5703125</ele>
        <time>2020-08-23T07:22:23Z</time>
      </trkpt>
      <trkpt lat="43.29923" lon="2.18905">
        <ele>232.38671875</ele>
        <time>2020-08-23T07:22:31Z</time>
      </trkpt>
      <trkpt lat="43.29908" lon="2.18926">
        <ele>231.4921875</ele>
        <time>2020-08-23T07:22:39Z</time>
      </trkpt>
      <trkpt lat="43.29892" lon="2.18944">
        <ele>230.64453125</ele>
        <time>2020-08-23T07:22:47Z</time>
      </trkpt>
      <trkpt lat="43.29875" lon="2.18957">
        <ele>229.69921875</ele>
        <time>2020-08-23T07:22:55Z</time>
      </trkpt>
      <trkpt lat="43.29858" lon="2.18972">
        <ele>228.86328125</ele>
        <time>2020-08-23T07:23:03Z</time>
      </trkpt>
      <trkpt lat="43.29822" lon="2.18992">
        <ele>227.89453125</ele>
        <time>2020-08-23T07:23:19Z</time>
      </trkpt>
      <trkpt lat="43.29803" lon="2.19001">
        <ele>227.32421875</ele>
        <time>2020-08-23T07:23:28Z</time>
      </trkpt>
      <trkpt lat="43.29791" lon="2.19021">
        <ele>227.4296875</ele>
        <time>2020-08-23T07:23:38Z</time>
      </trkpt>
      <trkpt lat="43.29787" lon="2.1905">
        <ele>227.94921875</ele>
        <time>2020-08-23T07:23:48Z</time>
      </trkpt>
      <trkpt lat="43.29784" lon="2.19078">
        <ele>228.39453125</ele>
        <time>2020-08-23T07:23:56Z</time>
      </trkpt>
      <trkpt lat="43.29783" lon="2.19106">
        <ele>228.87890625</ele>
        <time>2020-08-23T07:24:03Z</time>
      </trkpt>
      <trkpt lat="43.29781" lon="2.19135">
        <ele>229.3671875</ele>
        <time>2020-08-23T07:24:12Z</time>
      </trkpt>
      <trkpt lat="43.29771" lon="2.19157">
        <ele>229.35546875</ele>
        <time>2020-08-23T07:24:21Z</time>
      </trkpt>
      <trkpt lat="43.29751" lon="2.19169">
        <ele>229</ele>
        <time>2020-08-23T07:24:30Z</time>
      </trkpt>
      <trkpt lat="43.29732" lon="2.19181">
        <ele>228.88671875</ele>
        <time>2020-08-23T07:24:38Z</time>
      </trkpt>
      <trkpt lat="43.29713" lon="2.19192">
        <ele>228.90625</ele>
        <time>2020-08-23T07:24:47Z</time>
      </trkpt>
      <trkpt lat="43.29694" lon="2.192">
        <ele>228.94921875</ele>
        <time>2020-08-23T07:24:57Z</time>
      </trkpt>
      <trkpt lat="43.29672" lon="2.19207">
        <ele>228.08203125</ele>
        <time>2020-08-23T07:25:07Z</time>
      </trkpt>
      <trkpt lat="43.29651" lon="2.19219">
        <ele>227.34765625</ele>
        <time>2020-08-23T07:25:16Z</time>
      </trkpt>
      <trkpt lat="43.29633" lon="2.19233">
        <ele>226.76171875</ele>
        <time>2020-08-23T07:25:25Z</time>
      </trkpt>
      <trkpt lat="43.29614" lon="2.19249">
        <ele>226.0625</ele>
        <time>2020-08-23T07:25:35Z</time>
      </trkpt>
      <trkpt lat="43.29595" lon="2.19267">
        <ele>225.1484375</ele>
        <time>2020-08-23T07:25:44Z</time>
      </trkpt>
      <trkpt lat="43.29578" lon="2.19285">
        <ele>224.23046875</ele>
        <time>2020-08-23T07:25:52Z</time>
      </trkpt>
      <trkpt lat="43.2956" lon="2.193">
        <ele>223.34375</ele>
        <time>2020-08-23T07:26:00Z</time>
      </trkpt>
      <trkpt lat="43.29544" lon="2.19315">
        <ele>222.47265625</ele>
        <time>2020-08-23T07:26:07Z</time>
      </trkpt>
      <trkpt lat="43.29525" lon="2.1933">
        <ele>221.53515625</ele>
        <time>2020-08-23T07:26:15Z</time>
      </trkpt>
      <trkpt lat="43.29508" lon="2.19345">
        <ele>220.859375</ele>
        <time>2020-08-23T07:26:23Z</time>
      </trkpt>
      <trkpt lat="43.29491" lon="2.19357">
        <ele>220.37890625</ele>
        <time>2020-08-23T07:26:31Z</time>
      </trkpt>
      <trkpt lat="43.29472" lon="2.19369">
        <ele>219.95703125</ele>
        <time>2020-08-23T07:26:40Z</time>
      </trkpt>
      <trkpt lat="43.29454" lon="2.19385">
        <ele>219.78125</ele>
        <time>2020-08-23T07:26:49Z</time>
      </trkpt>
      <trkpt lat="43.2944" lon="2.19406">
        <ele>219.71484375</ele>
        <time>2020-08-23T07:26:57Z</time>
      </trkpt>
      <trkpt lat="43.29423" lon="2.19425">
        <ele>219.78515625</ele>
        <time>2020-08-23T07:27:05Z</time>
      </trkpt>
      <trkpt lat="43.29407" lon="2.19445">
        <ele>219.140625</ele>
        <time>2020-08-23T07:27:13Z</time>
      </trkpt>
      <trkpt lat="43.29391" lon="2.19463">
        <ele>218.7421875</ele>
        <time>2020-08-23T07:27:21Z</time>
      </trkpt>
      <trkpt lat="43.29373" lon="2.19483">
        <ele>218.44921875</ele>
        <time>2020-08-23T07:27:29Z</time>
      </trkpt>
      <trkpt lat="43.29356" lon="2.195">
        <ele>217.78125</ele>
        <time>2020-08-23T07:27:36Z</time>
      </trkpt>
      <trkpt lat="43.29339" lon="2.19515">
        <ele>217.4140625</ele>
        <time>2020-08-23T07:27:43Z</time>
      </trkpt>
      <trkpt lat="43.29324" lon="2.19535">
        <ele>217.296875</ele>
        <time>2020-08-23T07:28:11Z</time>
      </trkpt>
      <trkpt lat="43.29333" lon="2.19564">
        <ele>215.71484375</ele>
        <time>2020-08-23T07:28:41Z</time>
      </trkpt>
      <trkpt lat="43.29354" lon="2.19583">
        <ele>212.46875</ele>
        <time>2020-08-23T07:29:04Z</time>
      </trkpt>
      <trkpt lat="43.29375" lon="2.19583">
        <ele>210.5</ele>
        <time>2020-08-23T07:29:26Z</time>
      </trkpt>
      <trkpt lat="43.29375" lon="2.19614">
        <ele>208.8984375</ele>
        <time>2020-08-23T07:29:48Z</time>
      </trkpt>
      <trkpt lat="43.29366" lon="2.19649">
        <ele>207.078125</ele>
        <time>2020-08-23T07:29:59Z</time>
      </trkpt>
      <trkpt lat="43.29363" lon="2.19678">
        <ele>206.4375</ele>
        <time>2020-08-23T07:30:10Z</time>
      </trkpt>
      <trkpt lat="43.29359" lon="2.19709">
        <ele>206.2421875</ele>
        <time>2020-08-23T07:30:22Z</time>
      </trkpt>
      <trkpt lat="43.29379" lon="2.19747">
        <ele>207.140625</ele>
        <time>2020-08-23T07:30:37Z</time>
      </trkpt>
      <trkpt lat="43.29404" lon="2.19766">
        <ele>210.69921875</ele>
        <time>2020-08-23T07:30:51Z</time>
      </trkpt>
      <trkpt lat="43.29425" lon="2.19773">
        <ele>213.5625</ele>
        <time>2020-08-23T07:31:08Z</time>
      </trkpt>
      <trkpt lat="43.29451" lon="2.19769">
        <ele>215.4296875</ele>
        <time>2020-08-23T07:31:25Z</time>
      </trkpt>
      <trkpt lat="43.29481" lon="2.19769">
        <ele>217.9375</ele>
        <time>2020-08-23T07:31:39Z</time>
      </trkpt>
      <trkpt lat="43.29508" lon="2.19782">
        <ele>220.29296875</ele>
        <time>2020-08-23T07:31:54Z</time>
      </trkpt>
      <trkpt lat="43.29526" lon="2.19803">
        <ele>221.7734375</ele>
        <time>2020-08-23T07:32:04Z</time>
      </trkpt>
      <trkpt lat="43.2954" lon="2.19823">
        <ele>222.8046875</ele>
        <time>2020-08-23T07:32:13Z</time>
      </trkpt>
      <trkpt lat="43.29553" lon="2.19846">
        <ele>223.7578125</ele>
        <time>2020-08-23T07:32:27Z</time>
      </trkpt>
      <trkpt lat="43.29559" lon="2.19871">
        <ele>224.19140625</ele>
        <time>2020-08-23T07:32:51Z</time>
      </trkpt>
      <trkpt lat="43.29564" lon="2.19902">
        <ele>224.7890625</ele>
        <time>2020-08-23T07:33:05Z</time>
      </trkpt>
      <trkpt lat="43.29573" lon="2.19924">
        <ele>225.43359375</ele>
        <time>2020-08-23T07:33:17Z</time>
      </trkpt>
      <trkpt lat="43.2959" lon="2.19948">
        <ele>226.4140625</ele>
        <time>2020-08-23T07:33:27Z</time>
      </trkpt>
      <trkpt lat="43.29606" lon="2.19968">
        <ele>227.59375</ele>
        <time>2020-08-23T07:33:36Z</time>
      </trkpt>
      <trkpt lat="43.29622" lon="2.19989">
        <ele>228.765625</ele>
        <time>2020-08-23T07:33:44Z</time>
      </trkpt>
      <trkpt lat="43.29639" lon="2.20008">
        <ele>229.921875</ele>
        <time>2020-08-23T07:33:53Z</time>
      </trkpt>
      <trkpt lat="43.29655" lon="2.20026">
        <ele>230.8359375</ele>
        <time>2020-08-23T07:34:01Z</time>
      </trkpt>
      <trkpt lat="43.29671" lon="2.20044">
        <ele>231.76953125</ele>
        <time>2020-08-23T07:34:09Z</time>
      </trkpt>
      <trkpt lat="43.29702" lon="2.20052">
        <ele>233.46875</ele>
        <time>2020-08-23T07:34:29Z</time>
      </trkpt>
      <trkpt lat="43.29724" lon="2.20068">
        <ele>234.75</ele>
        <time>2020-08-23T07:34:40Z</time>
      </trkpt>
      <trkpt lat="43.29747" lon="2.20083">
        <ele>235.86328125</ele>
        <time>2020-08-23T07:34:52Z</time>
      </trkpt>
      <trkpt lat="43.29766" lon="2.20103">
        <ele>237.1015625</ele>
        <time>2020-08-23T07:35:02Z</time>
      </trkpt>
      <trkpt lat="43.29784" lon="2.20124">
        <ele>238.375</ele>
        <time>2020-08-23T07:35:11Z</time>
      </trkpt>
      <trkpt lat="43.29803" lon="2.20141">
        <ele>239.75</ele>
        <time>2020-08-23T07:35:21Z</time>
      </trkpt>
      <trkpt lat="43.2982" lon="2.20153">
        <ele>240.24609375</ele>
        <time>2020-08-23T07:35:43Z</time>
      </trkpt>
      <trkpt lat="43.2984" lon="2.20166">
        <ele>240.8984375</ele>
        <time>2020-08-23T07:35:57Z</time>
      </trkpt>
      <trkpt lat="43.29858" lon="2.20183">
        <ele>241.78515625</ele>
        <time>2020-08-23T07:36:06Z</time>
      </trkpt>
      <trkpt lat="43.29878" lon="2.202">
        <ele>242.86328125</ele>
        <time>2020-08-23T07:36:15Z</time>
      </trkpt>
      <trkpt lat="43.29885" lon="2.20225">
        <ele>243.23828125</ele>
        <time>2020-08-23T07:37:27Z</time>
      </trkpt>
      <trkpt lat="43.29872" lon="2.20245">
        <ele>242.55859375</ele>
        <time>2020-08-23T07:37:48Z</time>
      </trkpt>
      <trkpt lat="43.29863" lon="2.20268">
        <ele>241.8203125</ele>
        <time>2020-08-23T07:38:13Z</time>
      </trkpt>
      <trkpt lat="43.29853" lon="2.20294">
        <ele>240.640625</ele>
        <time>2020-08-23T07:38:33Z</time>
      </trkpt>
      <trkpt lat="43.29841" lon="2.20318">
        <ele>239.53125</ele>
        <time>2020-08-23T07:38:43Z</time>
      </trkpt>
      <trkpt lat="43.29832" lon="2.20345">
        <ele>238.82421875</ele>
        <time>2020-08-23T07:38:52Z</time>
      </trkpt>
      <trkpt lat="43.2982" lon="2.20371">
        <ele>238.078125</ele>
        <time>2020-08-23T07:39:01Z</time>
      </trkpt>
      <trkpt lat="43.2981" lon="2.20398">
        <ele>237.82421875</ele>
        <time>2020-08-23T07:39:10Z</time>
      </trkpt>
      <trkpt lat="43.29794" lon="2.20419">
        <ele>236.84375</ele>
        <time>2020-08-23T07:39:19Z</time>
      </trkpt>
      <trkpt lat="43.29777" lon="2.20428">
        <ele>235.50390625</ele>
        <time>2020-08-23T07:39:27Z</time>
      </trkpt>
      <trkpt lat="43.29755" lon="2.20434">
        <ele>233.85546875</ele>
        <time>2020-08-23T07:39:38Z</time>
      </trkpt>
      <trkpt lat="43.29735" lon="2.20448">
        <ele>233.1328125</ele>
        <time>2020-08-23T07:39:48Z</time>
      </trkpt>
      <trkpt lat="43.29714" lon="2.20472">
        <ele>232.8359375</ele>
        <time>2020-08-23T07:39:57Z</time>
      </trkpt>
      <trkpt lat="43.29696" lon="2.20497">
        <ele>232.79296875</ele>
        <time>2020-08-23T07:40:06Z</time>
      </trkpt>
      <trkpt lat="43.29684" lon="2.20519">
        <ele>232.890625</ele>
        <time>2020-08-23T07:40:16Z</time>
      </trkpt>
      <trkpt lat="43.29659" lon="2.20536">
        <ele>232.14453125</ele>
        <time>2020-08-23T07:40:31Z</time>
      </trkpt>
      <trkpt lat="43.29625" lon="2.20544">
        <ele>230.1640625</ele>
        <time>2020-08-23T07:40:43Z</time>
      </trkpt>
      <trkpt lat="43.29597" lon="2.20564">
        <ele>228.4609375</ele>
        <time>2020-08-23T07:40:54Z</time>
      </trkpt>
      <trkpt lat="43.29578" lon="2.20591">
        <ele>227.6953125</ele>
        <time>2020-08-23T07:41:03Z</time>
      </trkpt>
      <trkpt lat="43.29555" lon="2.20595">
        <ele>226.12109375</ele>
        <time>2020-08-23T07:41:17Z</time>
      </trkpt>
      <trkpt lat="43.29529" lon="2.20576">
        <ele>223.578125</ele>
        <time>2020-08-23T07:41:30Z</time>
      </trkpt>
      <trkpt lat="43.29491" lon="2.20565">
        <ele>220.1953125</ele>
        <time>2020-08-23T07:41:44Z</time>
      </trkpt>
      <trkpt lat="43.29462" lon="2.20568">
        <ele>218.796875</ele>
        <time>2020-08-23T07:41:56Z</time>
      </trkpt>
      <trkpt lat="43.29434" lon="2.20568">
        <ele>218.4921875</ele>
        <time>2020-08-23T07:42:04Z</time>
      </trkpt>
      <trkpt lat="43.29408" lon="2.20571">
        <ele>218.1015625</ele>
        <time>2020-08-23T07:42:11Z</time>
      </trkpt>
      <trkpt lat="43.29382" lon="2.20569">
        <ele>217.2578125</ele>
        <time>2020-08-23T07:42:19Z</time>
      </trkpt>
      <trkpt lat="43.29359" lon="2.2057">
        <ele>216.62109375</ele>
        <time>2020-08-23T07:42:27Z</time>
      </trkpt>
      <trkpt lat="43.29339" lon="2.20568">
        <ele>216.18359375</ele>
        <time>2020-08-23T07:42:36Z</time>
      </trkpt>
      <trkpt lat="43.29317" lon="2.20561">
        <ele>215.31640625</ele>
        <time>2020-08-23T07:42:45Z</time>
      </trkpt>
      <trkpt lat="43.29293" lon="2.20556">
        <ele>213.8828125</ele>
        <time>2020-08-23T07:42:55Z</time>
      </trkpt>
      <trkpt lat="43.2927" lon="2.20563">
        <ele>213.390625</ele>
        <time>2020-08-23T07:43:05Z</time>
      </trkpt>
      <trkpt lat="43.29247" lon="2.20571">
        <ele>213.21484375</ele>
        <time>2020-08-23T07:43:18Z</time>
      </trkpt>
      <trkpt lat="43.29237" lon="2.20596">
        <ele>214.85546875</ele>
        <time>2020-08-23T07:43:41Z</time>
      </trkpt>
      <trkpt lat="43.29237" lon="2.20631">
        <ele>215.4765625</ele>
        <time>2020-08-23T07:44:00Z</time>
      </trkpt>
      <trkpt lat="43.29231" lon="2.20661">
        <ele>215</ele>
        <time>2020-08-23T07:44:20Z</time>
      </trkpt>
      <trkpt lat="43.29229" lon="2.20698">
        <ele>214.23046875</ele>
        <time>2020-08-23T07:44:43Z</time>
      </trkpt>
      <trkpt lat="43.29238" lon="2.20723">
        <ele>215.6953125</ele>
        <time>2020-08-23T07:45:15Z</time>
      </trkpt>
      <trkpt lat="43.29241" lon="2.20754">
        <ele>216.2734375</ele>
        <time>2020-08-23T07:45:36Z</time>
      </trkpt>
      <trkpt lat="43.29237" lon="2.20782">
        <ele>216.2109375</ele>
        <time>2020-08-23T07:45:48Z</time>
      </trkpt>
      <trkpt lat="43.29237" lon="2.20812">
        <ele>216.53515625</ele>
        <time>2020-08-23T07:45:58Z</time>
      </trkpt>
      <trkpt lat="43.29245" lon="2.20839">
        <ele>217.30859375</ele>
        <time>2020-08-23T07:46:07Z</time>
      </trkpt>
      <trkpt lat="43.29252" lon="2.20867">
        <ele>218.11328125</ele>
        <time>2020-08-23T07:46:16Z</time>
      </trkpt>
      <trkpt lat="43.29258" lon="2.20897">
        <ele>218.98828125</ele>
        <time>2020-08-23T07:46:24Z</time>
      </trkpt>
      <trkpt lat="43.29263" lon="2.20924">
        <ele>219.65625</ele>
        <time>2020-08-23T07:46:31Z</time>
      </trkpt>
      <trkpt lat="43.29269" lon="2.20951">
        <ele>220.1171875</ele>
        <time>2020-08-23T07:46:38Z</time>
      </trkpt>
      <trkpt lat="43.29276" lon="2.20979">
        <ele>220.80078125</ele>
        <time>2020-08-23T07:46:46Z</time>
      </trkpt>
      <trkpt lat="43.29281" lon="2.21008">
        <ele>221.703125</ele>
        <time>2020-08-23T07:46:54Z</time>
      </trkpt>
      <trkpt lat="43.29288" lon="2.21034">
        <ele>222.6796875</ele>
        <time>2020-08-23T07:47:02Z</time>
      </trkpt>
      <trkpt lat="43.29295" lon="2.21063">
        <ele>223.13671875</ele>
        <time>2020-08-23T07:47:09Z</time>
      </trkpt>
      <trkpt lat="43.293" lon="2.21091">
        <ele>223.54296875</ele>
        <time>2020-08-23T07:47:16Z</time>
      </trkpt>
      <trkpt lat="43.29305" lon="2.21123">
        <ele>224.4765625</ele>
        <time>2020-08-23T07:47:23Z</time>
      </trkpt>
      <trkpt lat="43.29311" lon="2.21153">
        <ele>225.42578125</ele>
        <time>2020-08-23T07:47:30Z</time>
      </trkpt>
      <trkpt lat="43.29317" lon="2.21179">
        <ele>226.21484375</ele>
        <time>2020-08-23T07:47:37Z</time>
      </trkpt>
      <trkpt lat="43.29319" lon="2.21212">
        <ele>226.69140625</ele>
        <time>2020-08-23T07:47:45Z</time>
      </trkpt>
      <trkpt lat="43.29317" lon="2.21244">
        <ele>226.578125</ele>
        <time>2020-08-23T07:47:53Z</time>
      </trkpt>
      <trkpt lat="43.29314" lon="2.21272">
        <ele>226.34375</ele>
        <time>2020-08-23T07:48:00Z</time>
      </trkpt>
      <trkpt lat="43.2931" lon="2.21301">
        <ele>226.1484375</ele>
        <time>2020-08-23T07:48:07Z</time>
      </trkpt>
      <trkpt lat="43.29314" lon="2.21336">
        <ele>225.6796875</ele>
        <time>2020-08-23T07:48:15Z</time>
      </trkpt>
      <trkpt lat="43.29329" lon="2.21357">
        <ele>225.26171875</ele>
        <time>2020-08-23T07:48:26Z</time>
      </trkpt>
      <trkpt lat="43.29346" lon="2.2138">
        <ele>224.015625</ele>
        <time>2020-08-23T07:48:39Z</time>
      </trkpt>
      <trkpt lat="43.29365" lon="2.21398">
        <ele>222.7421875</ele>
        <time>2020-08-23T07:48:50Z</time>
      </trkpt>
      <trkpt lat="43.29392" lon="2.2142">
        <ele>222.125</ele>
        <time>2020-08-23T07:49:06Z</time>
      </trkpt>
      <trkpt lat="43.29417" lon="2.21439">
        <ele>220.296875</ele>
        <time>2020-08-23T07:49:17Z</time>
      </trkpt>
      <trkpt lat="43.29437" lon="2.21462">
        <ele>218.68359375</ele>
        <time>2020-08-23T07:49:34Z</time>
      </trkpt>
      <trkpt lat="43.29459" lon="2.21479">
        <ele>218.1953125</ele>
        <time>2020-08-23T07:49:56Z</time>
      </trkpt>
      <trkpt lat="43.29481" lon="2.21498">
        <ele>215.796875</ele>
        <time>2020-08-23T07:50:07Z</time>
      </trkpt>
      <trkpt lat="43.29504" lon="2.21507">
        <ele>213.54296875</ele>
        <time>2020-08-23T07:50:17Z</time>
      </trkpt>
      <trkpt lat="43.29529" lon="2.21523">
        <ele>209.671875</ele>
        <time>2020-08-23T07:50:28Z</time>
      </trkpt>
      <trkpt lat="43.29556" lon="2.21539">
        <ele>203.6484375</ele>
        <time>2020-08-23T07:50:38Z</time>
      </trkpt>
      <trkpt lat="43.29582" lon="2.21544">
        <ele>200.24609375</ele>
        <time>2020-08-23T07:50:48Z</time>
      </trkpt>
      <trkpt lat="43.29608" lon="2.21543">
        <ele>197.3515625</ele>
        <time>2020-08-23T07:50:58Z</time>
      </trkpt>
      <trkpt lat="43.29638" lon="2.21545">
        <ele>193.6171875</ele>
        <time>2020-08-23T07:51:07Z</time>
      </trkpt>
      <trkpt lat="43.29659" lon="2.21548">
        <ele>190.67578125</ele>
        <time>2020-08-23T07:51:15Z</time>
      </trkpt>
      <trkpt lat="43.29684" lon="2.21553">
        <ele>187.42578125</ele>
        <time>2020-08-23T07:51:23Z</time>
      </trkpt>
      <trkpt lat="43.2971" lon="2.21562">
        <ele>183.28125</ele>
        <time>2020-08-23T07:51:31Z</time>
      </trkpt>
      <trkpt lat="43.29733" lon="2.21569">
        <ele>179.89453125</ele>
        <time>2020-08-23T07:51:38Z</time>
      </trkpt>
      <trkpt lat="43.29754" lon="2.21573">
        <ele>176.8515625</ele>
        <time>2020-08-23T07:51:46Z</time>
      </trkpt>
      <trkpt lat="43.29775" lon="2.21577">
        <ele>172.00390625</ele>
        <time>2020-08-23T07:51:57Z</time>
      </trkpt>
      <trkpt lat="43.29802" lon="2.21563">
        <ele>166.49609375</ele>
        <time>2020-08-23T07:52:12Z</time>
      </trkpt>
      <trkpt lat="43.29831" lon="2.21549">
        <ele>161.6015625</ele>
        <time>2020-08-23T07:52:22Z</time>
      </trkpt>
      <trkpt lat="43.29863" lon="2.21537">
        <ele>156.71484375</ele>
        <time>2020-08-23T07:52:33Z</time>
      </trkpt>
      <trkpt lat="43.2989" lon="2.21537">
        <ele>154.234375</ele>
        <time>2020-08-23T07:52:42Z</time>
      </trkpt>
      <trkpt lat="43.29916" lon="2.21529">
        <ele>152.25</ele>
        <time>2020-08-23T07:52:52Z</time>
      </trkpt>
      <trkpt lat="43.29938" lon="2.21523">
        <ele>151.36328125</ele>
        <time>2020-08-23T07:53:00Z</time>
      </trkpt>
      <trkpt lat="43.29959" lon="2.21518">
        <ele>150.4609375</ele>
        <time>2020-08-23T07:53:09Z</time>
      </trkpt>
      <trkpt lat="43.29982" lon="2.2151">
        <ele>149.93359375</ele>
        <time>2020-08-23T07:53:32Z</time>
      </trkpt>
      <trkpt lat="43.30003" lon="2.21503">
        <ele>149.76171875</ele>
        <time>2020-08-23T07:53:42Z</time>
      </trkpt>
      <trkpt lat="43.30022" lon="2.21494">
        <ele>149.90234375</ele>
        <time>2020-08-23T07:53:50Z</time>
      </trkpt>
      <trkpt lat="43.30043" lon="2.21485">
        <ele>150.1484375</ele>
        <time>2020-08-23T07:53:58Z</time>
      </trkpt>
      <trkpt lat="43.30062" lon="2.21476">
        <ele>150.39453125</ele>
        <time>2020-08-23T07:54:06Z</time>
      </trkpt>
      <trkpt lat="43.30082" lon="2.21466">
        <ele>150.3828125</ele>
        <time>2020-08-23T07:54:14Z</time>
      </trkpt>
      <trkpt lat="43.30102" lon="2.2146">
        <ele>150.50390625</ele>
        <time>2020-08-23T07:54:21Z</time>
      </trkpt>
      <trkpt lat="43.30122" lon="2.21456">
        <ele>150.4765625</ele>
        <time>2020-08-23T07:54:28Z</time>
      </trkpt>
      <trkpt lat="43.30143" lon="2.21452">
        <ele>150.40234375</ele>
        <time>2020-08-23T07:54:36Z</time>
      </trkpt>
      <trkpt lat="43.30164" lon="2.21452">
        <ele>150.18359375</ele>
        <time>2020-08-23T07:54:43Z</time>
      </trkpt>
      <trkpt lat="43.30186" lon="2.21455">
        <ele>149.84375</ele>
        <time>2020-08-23T07:54:50Z</time>
      </trkpt>
      <trkpt lat="43.30206" lon="2.2146">
        <ele>149.40234375</ele>
        <time>2020-08-23T07:54:57Z</time>
      </trkpt>
      <trkpt lat="43.30225" lon="2.2147">
        <ele>148.6796875</ele>
        <time>2020-08-23T07:55:05Z</time>
      </trkpt>
      <trkpt lat="43.30243" lon="2.21478">
        <ele>148.08984375</ele>
        <time>2020-08-23T07:55:13Z</time>
      </trkpt>
      <trkpt lat="43.3026" lon="2.21493">
        <ele>147.43359375</ele>
        <time>2020-08-23T07:55:20Z</time>
      </trkpt>
      <trkpt lat="43.30267" lon="2.21519">
        <ele>146.4765625</ele>
        <time>2020-08-23T07:55:29Z</time>
      </trkpt>
      <trkpt lat="43.30285" lon="2.21534">
        <ele>145.0390625</ele>
        <time>2020-08-23T07:57:19Z</time>
      </trkpt>
      <trkpt lat="43.30304" lon="2.21529">
        <ele>144.2578125</ele>
        <time>2020-08-23T07:57:30Z</time>
      </trkpt>
      <trkpt lat="43.30324" lon="2.21524">
        <ele>144.3515625</ele>
        <time>2020-08-23T07:57:42Z</time>
      </trkpt>
      <trkpt lat="43.30344" lon="2.21524">
        <ele>144.3046875</ele>
        <time>2020-08-23T07:57:52Z</time>
      </trkpt>
      <trkpt lat="43.30365" lon="2.21529">
        <ele>144.12109375</ele>
        <time>2020-08-23T07:58:02Z</time>
      </trkpt>
      <trkpt lat="43.30387" lon="2.2153">
        <ele>144.06640625</ele>
        <time>2020-08-23T07:58:15Z</time>
      </trkpt>
      <trkpt lat="43.30423" lon="2.21526">
        <ele>144.28125</ele>
        <time>2020-08-23T07:58:28Z</time>
      </trkpt>
      <trkpt lat="43.30449" lon="2.21519">
        <ele>144.359375</ele>
        <time>2020-08-23T07:58:39Z</time>
      </trkpt>
      <trkpt lat="43.30475" lon="2.21514">
        <ele>144.265625</ele>
        <time>2020-08-23T07:58:50Z</time>
      </trkpt>
      <trkpt lat="43.305" lon="2.21503">
        <ele>145.30078125</ele>
        <time>2020-08-23T07:59:00Z</time>
      </trkpt>
      <trkpt lat="43.30523" lon="2.21497">
        <ele>145.83984375</ele>
        <time>2020-08-23T07:59:10Z</time>
      </trkpt>
      <trkpt lat="43.3054" lon="2.21511">
        <ele>145.51953125</ele>
        <time>2020-08-23T07:59:20Z</time>
      </trkpt>
      <trkpt lat="43.30555" lon="2.21536">
        <ele>145.35546875</ele>
        <time>2020-08-23T07:59:31Z</time>
      </trkpt>
      <trkpt lat="43.30572" lon="2.21552">
        <ele>145.99609375</ele>
        <time>2020-08-23T07:59:40Z</time>
      </trkpt>
      <trkpt lat="43.30594" lon="2.21548">
        <ele>147.546875</ele>
        <time>2020-08-23T07:59:50Z</time>
      </trkpt>
      <trkpt lat="43.30611" lon="2.21534">
        <ele>149.37109375</ele>
        <time>2020-08-23T07:59:58Z</time>
      </trkpt>
      <trkpt lat="43.30628" lon="2.21523">
        <ele>150.88671875</ele>
        <time>2020-08-23T08:00:07Z</time>
      </trkpt>
      <trkpt lat="43.30647" lon="2.21509">
        <ele>152.5</ele>
        <time>2020-08-23T08:00:16Z</time>
      </trkpt>
      <trkpt lat="43.30667" lon="2.21495">
        <ele>154.97265625</ele>
        <time>2020-08-23T08:00:27Z</time>
      </trkpt>
      <trkpt lat="43.30685" lon="2.21506">
        <ele>157.3046875</ele>
        <time>2020-08-23T08:00:40Z</time>
      </trkpt>
      <trkpt lat="43.30696" lon="2.2153">
        <ele>158.13671875</ele>
        <time>2020-08-23T08:00:49Z</time>
      </trkpt>
      <trkpt lat="43.30709" lon="2.21554">
        <ele>157.8828125</ele>
        <time>2020-08-23T08:00:59Z</time>
      </trkpt>
      <trkpt lat="43.30719" lon="2.21585">
        <ele>157.30078125</ele>
        <time>2020-08-23T08:01:09Z</time>
      </trkpt>
      <trkpt lat="43.30755" lon="2.21596">
        <ele>159.890625</ele>
        <time>2020-08-23T08:01:40Z</time>
      </trkpt>
      <trkpt lat="43.30759" lon="2.21599">
        <ele>159.98828125</ele>
        <time>2020-08-23T08:01:44Z</time>
      </trkpt>
    </trkseg>
  </trk>
</gpx>